Time;durP1;ratioP1;P1;durP2;ratioP2;P2;SDS_P1;SDS_P2;PMS_P1;PMS_P2;Temp;Humidity;BMP_temperature;BMP_pressure;BME280_temperature;BME280_humidity;BME280_pressure;Samples;Min_cycle;Max_cycle;Signal;HPM_P1;HPM_P2
2022/06/02 00:01:17;;;;;;;9.10;4.45;;;;;;;-144.47;65.32;53388.41;4978676;28;20490;-88
2022/06/02 00:04:18;;;;;;;7.20;4.25;;;;;;;-144.47;65.64;53436.09;4975477;28;20027;-88
2022/06/02 00:07:23;;;;;;;8.65;4.65;;;;;;;-144.47;65.40;53432.13;4936626;29;20075;-89
2022/06/02 00:10:00;;;;;;;6.50;4.25;;;;;;;-144.47;65.42;53396.38;4927808;29;20071;-88
2022/06/02 00:12:51;;;;;;;7.38;4.13;;;;;;;-144.47;65.96;53408.28;4952633;29;20117;-88
2022/06/02 00:15:16;;;;;;;5.88;4.20;;;;;;;-144.47;66.20;53394.38;4952002;29;20040;-87
2022/06/02 00:18:06;;;;;;;5.70;3.92;;;;;;;-144.47;66.24;53406.31;4952641;28;20045;-87
2022/06/02 00:20:49;;;;;;;9.98;4.50;;;;;;;-144.47;66.47;53392.41;4936932;29;20027;-88
2022/06/02 00:23:25;;;;;;;10.65;4.43;;;;;;;-144.47;66.58;53400.34;4952320;29;20041;-89
2022/06/02 00:26:07;;;;;;;7.32;4.63;;;;;;;-144.47;67.16;53420.22;4951865;28;20118;-88
2022/06/02 00:28:52;;;;;;;7.63;5.13;;;;;;;-144.47;67.78;53420.22;4952260;28;20039;-88
2022/06/02 00:31:51;;;;;;;9.70;5.40;;;;;;;-144.47;68.13;53440.06;4936289;29;20062;-88
2022/06/02 00:34:39;;;;;;;7.88;4.93;;;;;;;-144.47;68.15;53452.00;4961109;28;20039;-88
2022/06/02 00:37:23;;;;;;;9.25;5.35;;;;;;;-144.47;68.53;53416.22;4955299;28;20035;-89
2022/06/02 00:39:50;;;;;;;12.20;4.95;;;;;;;-144.47;68.40;53404.31;4971527;28;20030;-88
2022/06/02 00:42:28;;;;;;;8.38;4.95;;;;;;;-144.47;68.65;53436.09;4971671;28;20074;-89
2022/06/02 00:44:59;;;;;;;7.32;4.45;;;;;;;-144.47;68.82;53416.22;5010758;28;20136;-88
2022/06/02 00:47:46;;;;;;;7.20;4.78;;;;;;;-144.47;69.32;53406.31;5012929;28;20088;-89
2022/06/02 00:51:04;;;;;;;8.93;5.05;;;;;;;-144.47;69.92;53422.19;5011571;28;20309;-88
2022/06/02 00:53:41;;;;;;;7.55;4.65;;;;;;;-144.47;69.77;53396.38;4993982;28;20030;-87
2022/06/02 01:00:12;;;;;;;8.20;5.22;;;;;;;-144.47;68.54;53430.13;5010333;28;20069;-88
2022/06/02 01:05:57;;;;;;;6.70;4.50;;;;;;;-144.47;68.51;53412.25;4933520;29;20480;-88
2022/06/02 01:09:13;;;;;;;5.93;4.38;;;;;;;-144.47;68.60;53396.38;4937183;29;20038;-87
2022/06/02 01:12:09;;;;;;;14.35;5.10;;;;;;;-144.47;69.18;53410.28;4904961;29;20047;-87
2022/06/02 01:15:15;;;;;;;7.82;5.20;;;;;;;-144.47;69.37;53426.16;4898859;29;20029;-87
2022/06/02 01:18:19;;;;;;;8.05;4.72;;;;;;;-144.47;69.34;53467.88;4879869;29;20144;-89
2022/06/02 01:20:58;;;;;;;8.35;5.50;;;;;;;-144.47;69.52;53428.16;4846401;29;20042;-88
2022/06/02 01:23:58;;;;;;;9.15;6.03;;;;;;;-144.47;69.55;53398.34;4867680;29;20470;-88
2022/06/02 01:26:38;;;;;;;8.38;5.05;;;;;;;-144.47;69.17;53428.16;4910144;29;20032;-89
2022/06/02 01:29:13;;;;;;;10.23;5.72;;;;;;;-144.47;69.04;53424.19;4917213;29;20437;-88
2022/06/02 01:32:14;;;;;;;10.02;5.25;;;;;;;-144.47;69.08;53436.09;4916905;29;20028;-88
2022/06/02 01:35:05;;;;;;;12.32;5.60;;;;;;;-144.47;68.88;53452.00;4916574;29;20040;-86
2022/06/02 01:37:53;;;;;;;8.57;5.32;;;;;;;-144.47;69.15;53436.09;4937629;29;20031;-87
2022/06/02 01:40:51;;;;;;;7.47;5.00;;;;;;;-144.47;69.29;53414.25;4938742;29;20033;-86
2022/06/02 01:43:24;;;;;;;7.82;4.95;;;;;;;-144.47;69.41;53420.22;4992594;28;20291;-87
2022/06/02 01:46:31;;;;;;;7.07;5.20;;;;;;;-144.47;69.52;53448.00;5021599;28;20339;-88
2022/06/02 01:49:18;;;;;;;14.23;5.67;;;;;;;-144.47;69.62;53422.19;5012998;28;20120;-87
2022/06/02 01:52:24;;;;;;;10.05;5.20;;;;;;;-144.47;69.78;53418.22;5014593;28;20053;-88
2022/06/02 01:55:17;;;;;;;8.75;5.25;;;;;;;-144.47;69.30;53432.13;4937916;29;20082;-87
2022/06/02 01:58:07;;;;;;;7.60;5.50;;;;;;;-144.47;69.34;53410.28;4954416;29;20039;-87
2022/06/02 02:00:38;;;;;;;8.82;5.35;;;;;;;-144.47;69.00;53404.31;4954316;29;20145;-87
2022/06/02 02:03:24;;;;;;;9.43;5.55;;;;;;;-144.47;68.72;53434.09;4954032;29;20091;-88
2022/06/02 02:05:55;;;;;;;9.38;5.80;;;;;;;-144.47;68.81;53414.25;4953798;29;20031;-89
2022/06/02 02:09:14;;;;;;;;;;;;;;;;;;;;;
2022/06/02 02:11:47;;;;;;;;;;;;;;;-144.47;69.07;53436.09;4954277;29;20164;-89
2022/06/02 02:14:19;;;;;;;8.48;5.55;;;;;;;-144.47;69.10;53404.31;4953461;29;19910;-89
2022/06/02 02:17:05;;;;;;;11.23;6.03;;;;;;;-144.47;68.88;53442.06;4953566;28;20193;-88
2022/06/02 02:19:54;;;;;;;8.88;5.88;;;;;;;-144.47;68.85;53404.31;4953751;29;20211;-88
2022/06/02 02:22:27;;;;;;;;;;;;;;;-144.47;68.64;53412.25;4938139;29;20027;-88
2022/06/02 02:25:28;;;;;;;9.80;5.65;;;;;;;-144.47;68.66;53400.34;4954835;29;19911;-90
2022/06/02 02:28:07;;;;;;;8.50;5.75;;;;;;;-144.47;68.81;53428.16;4953993;29;20039;-88
2022/06/02 02:30:45;;;;;;;11.20;6.50;;;;;;;-144.47;68.99;53408.28;4998794;28;20033;-86
2022/06/02 02:33:49;;;;;;;10.10;6.22;;;;;;;-144.47;69.15;53396.38;5014534;28;20045;-87
2022/06/02 02:36:33;;;;;;;9.85;6.82;;;;;;;-144.47;69.40;53414.25;5029548;28;20149;-87
2022/06/02 02:39:18;;;;;;;12.10;6.85;;;;;;;-144.47;69.71;53416.22;5030336;28;20030;-88
2022/06/02 02:42:12;;;;;;;13.32;7.03;;;;;;;-144.47;69.89;53416.22;5010253;28;20054;-87
2022/06/02 02:45:08;;;;;;;8.52;6.43;;;;;;;-144.47;69.82;53412.25;4993632;28;20058;-88
2022/06/02 02:48:14;;;;;;;9.13;6.13;;;;;;;-144.47;69.94;53444.03;5008897;28;20086;-86
2022/06/02 02:51:14;;;;;;;12.35;7.53;;;;;;;-144.47;70.19;53446.03;4974634;28;20093;-87
2022/06/02 02:53:47;;;;;;;9.35;6.43;;;;;;;-144.47;70.16;53430.13;4952893;28;20125;-87
2022/06/02 02:59:31;;;;;;;14.30;7.28;;;;;;;-144.47;70.56;53424.19;4994993;28;20025;-87
2022/06/02 03:02:13;;;;;;;10.52;7.15;;;;;;;-144.47;70.77;53428.16;4994698;28;20040;-86
2022/06/02 03:05:10;;;;;;;10.50;6.97;;;;;;;-144.47;70.74;53426.16;4980797;28;20419;-89
2022/06/02 03:07:37;;;;;;;10.82;7.82;;;;;;;-144.47;70.98;53467.88;4896788;29;20407;-87
2022/06/02 03:10:05;;;;;;;14.05;8.32;;;;;;;-144.47;71.02;53432.13;4896476;29;20414;-87
2022/06/02 03:12:51;;;;;;;11.38;7.85;;;;;;;-144.47;71.39;53467.88;4896805;29;20044;-84
2022/06/02 03:15:41;;;;;;;10.80;7.72;;;;;;;-144.47;71.11;53455.97;4910662;29;20167;-88
2022/06/02 03:18:16;;;;;;;11.30;7.95;;;;;;;-144.47;71.15;53465.91;4913700;29;20084;-87
2022/06/02 03:20:56;;;;;;;11.50;7.22;;;;;;;-144.47;71.56;53442.06;4915423;29;20044;-88
2022/06/02 03:23:49;;;;;;;10.98;7.43;;;;;;;-144.47;71.63;53444.03;4900584;29;20016;-86
2022/06/02 03:26:52;;;;;;;13.23;8.13;;;;;;;-144.47;71.81;53384.44;4916365;29;20111;-85
2022/06/02 03:30:01;;;;;;;10.32;7.30;;;;;;;-144.47;71.51;53446.03;4908032;29;20027;-86
2022/06/02 03:32:57;;;;;;;13.55;8.52;;;;;;;-144.47;71.38;53465.91;4913344;29;20429;-87
2022/06/02 03:35:46;;;;;;;13.98;8.32;;;;;;;-144.47;71.63;53446.03;4896729;29;20043;-86
2022/06/02 03:38:20;;;;;;;13.25;8.88;;;;;;;-144.47;71.75;53452.00;4921923;29;20043;-88
2022/06/02 03:41:00;;;;;;;15.10;9.02;;;;;;;-144.47;72.20;53448.00;4902091;29;20382;-89
2022/06/02 03:43:41;;;;;;;13.40;9.07;;;;;;;-144.47;71.98;53416.22;4922054;28;20044;-89
2022/06/02 03:46:14;;;;;;;11.48;8.65;;;;;;;-144.47;71.61;53432.13;4994585;28;20049;-88
2022/06/02 03:49:19;;;;;;;12.98;8.30;;;;;;;-144.47;71.46;53440.06;4996331;28;20048;-88
2022/06/02 03:55:20;;;;;;;12.57;9.13;;;;;;;-144.47;70.95;53440.06;4996518;28;20189;-87
2022/06/02 03:58:08;;;;;;;13.20;8.52;;;;;;;-144.47;71.47;53408.28;4998121;28;20086;-89
2022/06/02 04:01:13;;;;;;;12.00;8.53;;;;;;;-144.47;70.81;53428.16;4999450;28;20064;-88
2022/06/02 04:04:11;;;;;;;20.42;10.32;;;;;;;-144.47;70.19;53430.13;4995848;28;20264;-88
2022/06/02 04:07:12;;;;;;;12.23;9.30;;;;;;;-144.47;70.09;53404.31;4998123;28;20436;-88
2022/06/02 04:10:01;;;;;;;11.88;8.75;;;;;;;-144.47;69.98;53444.03;4996609;28;20034;-88
2022/06/02 04:15:42;;;;;;;13.40;8.80;;;;;;;-144.47;69.48;53392.41;5005651;28;20414;-86
2022/06/02 04:18:19;;;;;;;13.68;9.15;;;;;;;-144.47;69.74;53416.22;5017442;28;20041;-89
2022/06/02 04:21:09;;;;;;;14.23;9.57;;;;;;;-144.47;69.52;53434.09;5014690;28;20060;-88
2022/06/02 04:24:04;;;;;;;14.02;9.63;;;;;;;-144.47;69.67;53408.28;5013620;28;20108;-86
2022/06/02 04:26:32;;;;;;;15.27;10.05;;;;;;;-144.47;69.90;53408.28;5008341;28;20053;-84
2022/06/02 04:29:09;;;;;;;13.93;9.40;;;;;;;-144.47;69.54;53428.16;5013699;28;20383;-86
2022/06/02 04:32:12;;;;;;;14.15;9.40;;;;;;;-144.47;69.25;53434.09;5011258;28;20040;-86
2022/06/02 04:35:04;;;;;;;13.65;9.63;;;;;;;-144.47;69.09;53408.28;5013824;28;20037;-85
2022/06/02 04:38:08;;;;;;;13.77;9.77;;;;;;;-144.47;68.73;53446.03;5012652;28;20507;-85
2022/06/02 04:40:37;;;;;;;16.98;10.35;;;;;;;-144.47;68.66;53444.03;5005944;28;20128;-85
2022/06/02 04:43:47;;;;;;;12.68;9.63;;;;;;;-144.47;68.25;53404.31;5015273;28;20021;-86
2022/06/02 04:46:39;;;;;;;14.57;9.98;;;;;;;-144.47;67.95;53453.97;5020033;28;20034;-88
2022/06/02 04:49:13;;;;;;;14.70;10.18;;;;;;;-144.47;68.13;53422.19;5038941;28;20034;-89
2022/06/02 04:51:59;;;;;;;13.85;10.25;;;;;;;-144.47;68.14;53428.16;5033031;28;20430;-91
2022/06/02 04:54:52;;;;;;;14.35;9.90;;;;;;;-144.47;67.43;53390.41;5018385;28;20026;-88
2022/06/02 04:57:39;;;;;;;17.33;10.13;;;;;;;-144.47;67.99;53461.91;5028375;28;20036;-89
2022/06/02 05:00:28;;;;;;;14.68;9.90;;;;;;;-144.47;67.63;53420.22;5036170;28;20014;-89
2022/06/02 05:03:11;;;;;;;;;;;;;;;-144.47;68.03;53396.38;5030795;28;20025;-90
2022/06/02 05:06:01;;;;;;;13.27;9.20;;;;;;;-144.47;67.68;53444.03;5016940;28;20230;-90
2022/06/02 05:12:45;;;;;;;18.42;9.85;;;;;;;-144.47;67.61;53408.28;4977671;28;20089;-88
2022/06/02 05:16:03;;;;;;;14.93;9.97;;;;;;;-144.47;67.36;53404.31;4978324;28;20486;-89
2022/06/02 05:19:02;;;;;;;13.98;9.90;;;;;;;-144.47;67.23;53414.25;4981465;28;20053;-90
2022/06/02 05:22:05;;;;;;;14.00;10.38;;;;;;;-144.47;67.75;53410.28;4978307;28;20527;-88
2022/06/02 05:25:06;;;;;;;16.20;9.77;;;;;;;-144.47;67.56;53412.25;4885284;29;20051;-89
2022/06/02 05:28:22;;;;;;;;;;;;;;;;;;;;;
2022/06/02 05:30:58;;;;;;;;;;;;;;;-144.47;67.56;53448.00;4889471;29;20096;-89
2022/06/02 05:33:24;;;;;;;16.08;11.15;;;;;;;-144.47;67.26;53398.34;4883945;29;19912;-90
2022/06/02 05:36:30;;;;;;;19.08;10.88;;;;;;;-144.47;67.18;53422.19;4893554;29;20569;-89
2022/06/02 05:39:34;;;;;;;15.23;11.18;;;;;;;-144.47;66.91;53432.13;4850059;29;20041;-89
2022/06/02 05:42:12;;;;;;;14.68;11.02;;;;;;;-144.47;67.02;53380.47;4882833;29;20036;-89
2022/06/02 05:45:06;;;;;;;16.17;10.98;;;;;;;-144.47;66.78;53406.31;4884379;29;20119;-91
2022/06/02 05:47:44;;;;;;;14.75;10.40;;;;;;;-144.47;66.84;53424.19;4895256;29;20462;-89
2022/06/02 05:50:28;;;;;;;14.60;11.07;;;;;;;-144.47;66.83;53446.03;4944021;29;20064;-90
2022/06/02 05:53:29;;;;;;;13.65;9.55;;;;;;;-144.47;64.99;53406.31;4958095;28;20107;-89
2022/06/02 05:56:27;;;;;;;14.23;9.43;;;;;;;-144.47;65.06;53396.38;4882344;29;20056;-92
2022/06/02 05:59:15;;;;;;;15.93;10.32;;;;;;;-144.47;64.60;53382.47;4831392;29;20110;-90
2022/06/02 06:01:48;;;;;;;12.35;9.70;;;;;;;-144.47;64.41;53424.19;4933222;29;20039;-89
2022/06/02 06:04:49;;;;;;;13.43;8.88;;;;;;;-144.47;63.95;53440.06;4968174;28;20039;-90
2022/06/02 06:07:46;;;;;;;15.63;9.45;;;;;;;-144.47;64.35;53376.50;4945684;29;20062;-89
2022/06/02 06:10:20;;;;;;;12.88;8.85;;;;;;;-144.47;63.99;53416.22;4942915;29;20529;-89
2022/06/02 06:13:06;;;;;;;14.93;8.48;;;;;;;-144.47;64.76;53412.25;4956587;29;20055;-86
2022/06/02 06:15:42;;;;;;;12.02;8.00;;;;;;;-144.47;63.23;53384.44;4948597;29;20125;-88
2022/06/02 06:18:19;;;;;;;10.23;7.03;;;;;;;-144.47;61.86;53390.41;4956165;29;20034;-91
2022/06/02 06:21:02;;;;;;;13.43;7.40;;;;;;;-144.47;61.50;53402.31;4958375;28;20115;-89
2022/06/02 06:23:39;;;;;;;9.82;6.90;;;;;;;-144.47;61.54;53382.47;4956648;29;20061;-89
2022/06/02 06:26:07;;;;;;;10.60;7.82;;;;;;;-144.47;61.93;53368.56;4957051;28;20058;-88
2022/06/02 06:28:48;;;;;;;10.25;7.18;;;;;;;-144.47;62.11;53406.31;4955708;28;20085;-88
2022/06/02 06:31:43;;;;;;;11.48;6.63;;;;;;;-144.47;61.96;53372.53;4960509;28;20054;-89
2022/06/02 06:34:43;;;;;;;12.10;6.82;;;;;;;-144.47;60.87;53392.41;5022494;28;20037;-93
2022/06/02 06:51:43;;;;;;;11.10;6.75;;;;;;;-144.47;60.11;53372.53;4937788;29;20067;-88
2022/06/02 06:54:58;;;;;;;;;;;;;;;;;;;;;
2022/06/02 06:58:07;;;;;;;10.25;5.88;;;;;;;-144.47;59.23;53380.47;4937791;29;20122;-89
2022/06/02 07:00:52;;;;;;;11.80;6.53;;;;;;;-144.47;59.05;53418.22;4941155;29;20051;-88
2022/06/02 07:03:42;;;;;;;12.32;7.05;;;;;;;-144.47;59.33;53376.50;4921833;29;20035;-90
2022/06/02 07:06:53;;;;;;;10.43;5.28;;;;;;;-144.47;57.47;53346.72;4938534;29;20036;-89
2022/06/02 07:09:37;;;;;;;7.47;4.30;;;;;;;-144.47;57.09;53428.16;4941557;29;20597;-89
2022/06/02 07:15:30;;;;;;;7.70;3.97;;;;;;;-144.47;56.67;53384.44;4924889;29;20064;-91
2022/06/02 07:18:17;;;;;;;7.38;4.63;;;;;;;-144.47;56.32;53344.72;4937782;29;20028;-89
2022/06/02 07:21:15;;;;;;;9.88;5.28;;;;;;;-144.47;56.03;53336.78;4936733;29;20024;-90
2022/06/02 07:24:34;;;;;;;8.38;4.72;;;;;;;-144.47;55.72;53336.78;4960087;28;20034;-90
2022/06/02 07:27:32;;;;;;;8.23;4.03;;;;;;;-144.47;55.45;53332.81;4996314;28;20058;-89
2022/06/02 07:30:35;;;;;;;7.63;4.18;;;;;;;-144.47;54.68;53396.38;4978280;28;20026;-90
2022/06/02 07:33:39;;;;;;;6.05;4.13;;;;;;;-144.47;54.89;53358.63;5012034;28;20033;-90
2022/06/02 07:36:54;;;;;;;9.40;5.03;;;;;;;-144.47;53.88;53360.63;4997779;28;20128;-90
2022/06/02 07:39:51;;;;;;;7.18;4.18;;;;;;;-144.47;53.41;53400.34;5016391;28;20029;-88
2022/06/02 07:42:47;;;;;;;10.70;4.47;;;;;;;-144.47;53.76;53374.50;5015211;28;20447;-88
2022/06/02 07:45:24;;;;;;;7.57;4.78;;;;;;;-144.47;53.41;53346.72;5015201;28;20036;-89
2022/06/02 07:48:28;;;;;;;7.07;4.78;;;;;;;-144.47;53.68;53368.56;4998870;28;20038;-88
2022/06/02 07:51:17;;;;;;;11.50;4.57;;;;;;;-144.47;53.04;53344.72;4984610;28;20030;-90
2022/06/02 07:54:01;;;;;;;10.50;4.90;;;;;;;-144.47;53.80;53398.34;4994471;28;20093;-90
2022/06/02 07:56:51;;;;;;;7.15;4.30;;;;;;;-144.47;53.11;53354.66;4977282;28;20036;-90
2022/06/02 07:59:52;;;;;;;6.22;3.97;;;;;;;-144.47;52.71;53312.94;4982523;28;20117;-88
2022/06/02 08:02:39;;;;;;;6.10;3.15;;;;;;;-144.47;51.40;53328.81;4995454;28;20037;-88
2022/06/02 08:05:22;;;;;;;5.65;4.10;;;;;;;-144.47;51.68;53356.63;4997203;28;20034;-91
2022/06/02 08:08:03;;;;;;;4.88;3.10;;;;;;;-144.47;51.86;53342.72;4998979;28;20113;-88
2022/06/02 08:10:37;;;;;;;6.85;3.00;;;;;;;-144.47;50.59;53336.78;4998942;28;20042;-89
2022/06/02 08:13:56;;;;;;;4.03;2.38;;;;;;;-144.47;49.72;53358.63;5003242;28;20034;-88
2022/06/02 08:16:44;;;;;;;6.97;3.47;;;;;;;-144.47;50.29;53354.66;5000938;28;20572;-89
2022/06/02 08:19:28;;;;;;;5.20;2.90;;;;;;;-144.47;49.90;53310.94;4997436;28;20070;-90
2022/06/02 08:22:00;;;;;;;4.32;2.35;;;;;;;-144.47;49.45;53350.69;4981952;28;20046;-90
2022/06/02 08:24:50;;;;;;;7.03;2.88;;;;;;;-144.47;49.26;53303.00;4996801;28;20026;-90
2022/06/02 08:27:45;;;;;;;7.65;2.60;;;;;;;-144.47;48.93;53336.78;5010907;28;20026;-89
2022/06/02 08:30:55;;;;;;;4.50;2.42;;;;;;;-144.47;48.42;53348.69;5015450;28;20455;-89
2022/06/02 08:33:50;;;;;;;5.72;2.75;;;;;;;-144.47;48.39;53330.81;4995733;28;20045;-90
2022/06/02 08:36:51;;;;;;;6.35;3.00;;;;;;;-144.47;48.41;53332.81;5000514;28;20033;-90
2022/06/02 08:40:04;;;;;;;4.55;2.70;;;;;;;-144.47;47.74;53320.88;4988644;28;20104;-91
2022/06/02 08:46:34;;;;;;;7.20;2.95;;;;;;;-144.47;47.92;53316.91;4960591;28;20071;-90
2022/06/02 08:49:36;;;;;;;4.97;2.80;;;;;;;-144.47;48.69;53318.91;4938903;29;20107;-88
2022/06/02 08:52:47;;;;;;;5.80;2.60;;;;;;;-144.47;48.17;53308.97;4965201;28;20118;-91
2022/06/02 08:59:30;;;;;;;5.40;2.90;;;;;;;-144.47;46.33;53326.84;4953020;28;20039;-89
2022/06/02 09:02:13;;;;;;;9.52;2.85;;;;;;;-144.47;45.95;53287.13;4999701;22;20089;-69
2022/06/02 09:04:47;;;;;;;5.07;2.88;;;;;;;-144.47;45.95;53314.91;5020802;28;20033;-72
2022/06/02 09:07:38;;;;;;;5.18;2.70;;;;;;;-144.47;46.89;53291.09;5023422;28;20668;-71
2022/06/02 09:10:21;;;;;;;4.82;2.65;;;;;;;-144.47;47.32;53326.84;5027829;28;20051;-73
2022/06/02 09:13:06;;;;;;;7.40;2.58;;;;;;;-144.47;47.42;53334.78;5007331;28;20065;-69
2022/06/02 09:18:17;;;;;;;5.13;3.20;;;;;;;-144.47;45.11;53322.88;4986599;28;20067;-67
2022/06/02 09:20:50;;;;;;;5.18;2.83;;;;;;;-144.47;43.86;53281.16;4988328;28;20569;-66
2022/06/02 09:23:15;;;;;;;5.00;3.10;;;;;;;-144.47;43.86;53306.97;4988949;28;20034;-64
2022/06/02 09:25:55;;;;;;;6.40;2.35;;;;;;;-144.47;44.56;53316.91;4988609;28;20025;-66
2022/06/02 09:28:38;;;;;;;9.73;3.33;;;;;;;-144.47;45.74;53295.06;4989030;28;20060;-65
2022/06/02 09:31:41;;;;;;;6.55;3.50;;;;;;;-144.47;45.75;53308.97;4987564;28;20030;-65
2022/06/02 09:34:21;;;;;;;8.75;3.90;;;;;;;-144.47;45.91;53293.06;4989262;28;20395;-67
2022/06/02 09:37:19;;;;;;;7.85;3.72;;;;;;;-144.47;45.25;53324.84;4990068;28;20026;-65
2022/06/02 09:40:02;;;;;;;8.43;3.60;;;;;;;-144.47;44.24;53263.28;4976849;28;20085;-66
2022/06/02 09:42:42;;;;;;;6.32;3.40;;;;;;;-144.47;44.87;53299.03;4982486;28;20048;-66
2022/06/02 09:45:29;;;;;;;5.13;3.45;;;;;;;-144.47;45.50;53291.09;4984707;28;20648;-65
2022/06/02 09:48:16;;;;;;;5.50;2.90;;;;;;;-144.47;45.16;53328.81;4983356;28;20033;-66
2022/06/02 09:50:55;;;;;;;5.78;2.85;;;;;;;-144.47;44.62;53281.16;4983825;28;20421;-65
2022/06/02 09:53:39;;;;;;;;;;;;;;;-144.47;44.00;53338.75;4982965;28;20054;-65
2022/06/02 09:56:05;;;;;;;4.90;2.63;;;;;;;-144.47;43.56;53328.81;4985004;28;20064;-65
2022/06/02 09:58:48;;;;;;;4.53;2.55;;;;;;;-144.47;43.47;53287.13;4983323;28;20648;-65
2022/06/02 10:01:44;;;;;;;4.53;2.40;;;;;;;-144.47;43.27;53279.16;4985284;28;20026;-68
2022/06/02 10:04:47;;;;;;;7.13;2.80;;;;;;;-144.47;43.84;53320.88;4984755;28;20054;-66
2022/06/02 10:07:13;;;;;;;3.92;2.58;;;;;;;-144.47;42.83;53293.06;4982594;28;20069;-66
2022/06/02 10:10:03;;;;;;;4.75;2.42;;;;;;;-144.47;40.81;53305.00;4983423;28;20473;-67
2022/06/02 10:12:56;;;;;;;3.97;2.00;;;;;;;-144.47;41.11;53297.03;4983977;28;20035;-65
2022/06/02 10:15:43;;;;;;;5.22;2.50;;;;;;;-144.47;41.07;53261.28;4981185;28;20061;-67
2022/06/02 10:18:45;;;;;;;8.63;2.45;;;;;;;-144.47;41.63;53257.31;4984278;28;20050;-69
2022/06/02 10:21:25;;;;;;;4.82;2.75;;;;;;;-144.47;42.13;53261.28;4984573;28;20076;-66
2022/06/02 10:24:15;;;;;;;7.65;2.50;;;;;;;-144.47;40.91;53328.81;4985176;28;20398;-68
2022/06/02 10:27:22;;;;;;;5.13;2.40;;;;;;;-144.47;41.50;53324.84;4984813;28;20038;-68
2022/06/02 10:30:00;;;;;;;4.90;2.10;;;;;;;-144.47;40.77;53279.16;4979682;28;20038;-68
2022/06/02 10:32:46;;;;;;;5.05;2.58;;;;;;;-144.47;40.78;53269.22;4981106;28;20149;-65
2022/06/02 10:35:33;;;;;;;4.45;2.55;;;;;;;-144.47;39.79;53261.28;4983163;28;20482;-67
2022/06/02 10:38:10;;;;;;;5.03;2.25;;;;;;;-144.47;39.31;53279.16;4987461;28;20038;-65
2022/06/02 10:40:35;;;;;;;3.80;2.35;;;;;;;-144.47;39.45;53261.28;4989289;28;20483;-68
2022/06/02 10:43:26;;;;;;;8.35;2.30;;;;;;;-144.47;38.87;53318.91;4990156;28;20105;-68
2022/06/02 10:46:10;;;;;;;5.05;2.17;;;;;;;-144.47;39.54;53261.28;4986769;28;20037;-66
2022/06/02 10:48:50;;;;;;;5.35;2.38;;;;;;;-144.47;39.63;53261.28;4987969;28;20605;-67
2022/06/02 10:51:39;;;;;;;6.82;2.40;;;;;;;-144.47;40.21;53265.25;4989505;28;20493;-68
2022/06/02 10:54:23;;;;;;;4.03;2.10;;;;;;;-144.47;40.32;53275.19;4989189;28;20122;-66
2022/06/02 10:57:00;;;;;;;3.88;1.90;;;;;;;-144.47;40.25;53275.19;4983887;28;20053;-67
2022/06/02 11:00:03;;;;;;;4.13;2.10;;;;;;;-144.47;39.67;53291.09;4988632;28;20508;-67
2022/06/02 11:02:50;;;;;;;2.85;1.75;;;;;;;-144.47;39.12;53251.34;4989869;28;20041;-67
2022/06/02 11:05:50;;;;;;;6.53;2.40;;;;;;;-144.47;39.18;53297.03;4989909;28;20501;-66
2022/06/02 11:08:51;;;;;;;4.38;2.25;;;;;;;-144.47;38.39;53281.16;4988118;28;20023;-68
2022/06/02 11:11:38;;;;;;;3.60;1.92;;;;;;;-144.47;37.88;53271.22;4988872;28;20042;-67
2022/06/02 11:14:25;;;;;;;3.20;1.80;;;;;;;-144.47;38.81;53253.34;4989826;28;20030;-66
2022/06/02 11:17:44;;;;;;;7.22;2.10;;;;;;;-144.47;38.64;53267.25;4984414;28;20018;-65
2022/06/02 11:20:31;;;;;;;4.20;1.65;;;;;;;-144.47;39.47;53271.22;4971787;28;20089;-67
2022/06/02 11:22:59;;;;;;;11.23;2.33;;;;;;;-144.47;39.26;53297.03;4986483;28;20117;-68
2022/06/02 11:26:06;;;;;;;3.30;1.58;;;;;;;-144.47;39.59;53221.56;4987926;28;20077;-65
2022/06/02 11:28:52;;;;;;;5.32;1.20;;;;;;;-144.47;39.64;53243.41;4967263;28;20042;-68
2022/06/02 11:31:51;;;;;;;9.38;2.25;;;;;;;-144.47;38.92;53253.34;4989078;28;20405;-67
2022/06/02 11:34:22;;;;;;;;;;;;;;;-144.47;37.44;53259.31;4989006;28;20029;-69
2022/06/02 11:37:20;;;;;;;3.35;1.92;;;;;;;-144.47;36.90;53253.34;4989014;28;19917;-67
2022/06/02 11:40:07;;;;;;;5.40;1.60;;;;;;;-144.47;36.65;53301.03;4985310;28;20038;-70
2022/06/02 11:42:57;;;;;;;3.22;1.67;;;;;;;-144.47;36.65;53257.31;4989228;28;20101;-70
2022/06/02 11:45:56;;;;;;;4.22;1.63;;;;;;;-144.47;37.13;53247.38;4988347;28;20026;-67
2022/06/02 11:48:27;;;;;;;3.15;1.80;;;;;;;-144.47;36.91;53261.28;4982152;28;20037;-70
2022/06/02 11:51:14;;;;;;;2.60;1.58;;;;;;;-144.47;36.78;53257.31;5003078;28;20041;-67
2022/06/02 11:54:19;;;;;;;4.47;1.90;;;;;;;-144.47;36.16;53261.28;4989280;28;20034;-67
2022/06/02 11:56:50;;;;;;;4.88;1.85;;;;;;;-144.47;36.50;53261.28;4983848;28;20101;-66
2022/06/02 11:59:24;;;;;;;3.03;1.70;;;;;;;-144.47;36.47;53275.19;4987476;28;20034;-66
2022/06/02 12:02:11;;;;;;;5.78;1.92;;;;;;;-144.47;36.13;53277.19;4988869;28;20037;-67
2022/06/02 12:04:39;;;;;;;2.55;1.55;;;;;;;-144.47;36.22;53237.44;4986789;28;20026;-68
2022/06/02 12:07:51;;;;;;;5.20;1.77;;;;;;;-144.47;35.72;53253.34;4987105;28;20120;-66
2022/06/02 12:10:25;;;;;;;7.35;1.80;;;;;;;-144.47;35.19;53237.44;4969763;28;20084;-65
2022/06/02 12:13:09;;;;;;;5.32;1.70;;;;;;;-144.47;35.33;53245.41;4989491;28;20030;-65
2022/06/02 12:15:45;;;;;;;5.00;1.85;;;;;;;-144.47;34.81;53277.19;4987959;28;20548;-69
2022/06/02 12:18:26;;;;;;;5.57;1.50;;;;;;;-144.47;35.06;53261.28;4987829;28;20058;-68
2022/06/02 12:21:13;;;;;;;2.55;1.60;;;;;;;-144.47;34.96;53243.41;4989072;28;20769;-68
2022/06/02 12:23:44;;;;;;;6.20;2.00;;;;;;;-144.47;35.69;53247.38;4990051;28;20401;-67
2022/06/02 12:26:38;;;;;;;12.25;2.20;;;;;;;-144.47;35.33;53241.44;4989901;28;20023;-66
2022/06/02 12:29:23;;;;;;;4.97;2.00;;;;;;;-144.47;35.61;53269.22;4993555;28;20030;-69
2022/06/02 12:32:18;;;;;;;4.65;1.92;;;;;;;-144.47;35.79;53279.16;4989479;28;20076;-68
2022/06/02 12:34:58;;;;;;;4.25;2.13;;;;;;;-144.47;35.96;53265.25;4989725;28;20036;-68
2022/06/02 12:37:57;;;;;;;4.70;1.92;;;;;;;-144.47;35.40;53247.38;4989280;28;20114;-68
2022/06/02 12:40:44;;;;;;;4.57;2.20;;;;;;;-144.47;35.44;53251.34;4989016;28;20030;-66
2022/06/02 12:43:29;;;;;;;2.78;1.60;;;;;;;-144.47;34.03;53237.44;4988945;28;20030;-68
2022/06/02 12:46:04;;;;;;;5.30;1.83;;;;;;;-144.47;33.57;53235.47;4988806;28;20056;-67
2022/06/02 12:49:07;;;;;;;4.05;1.88;;;;;;;-144.47;32.54;53225.53;4988878;28;20458;-65
2022/06/02 12:51:57;;;;;;;5.13;1.75;;;;;;;-144.47;31.51;53227.53;4975821;28;20094;-68
2022/06/02 12:55:01;;;;;;;6.45;1.83;;;;;;;-144.47;32.81;53199.72;4988878;28;20034;-65
2022/06/02 12:57:57;;;;;;;3.75;1.65;;;;;;;-144.47;32.09;53207.66;4988003;28;20256;-66
2022/06/02 13:00:48;;;;;;;4.65;1.90;;;;;;;-144.47;32.25;53263.28;4988500;28;20516;-65
2022/06/02 13:03:54;;;;;;;3.40;1.55;;;;;;;-144.47;32.29;53237.44;4992320;28;20080;-66
2022/06/02 13:06:39;;;;;;;5.57;1.80;;;;;;;-144.47;32.85;53225.53;4992248;28;20053;-65
2022/06/02 13:09:22;;;;;;;3.92;1.70;;;;;;;-144.47;33.12;53213.63;4992490;28;20404;-68
2022/06/02 13:12:00;;;;;;;2.35;1.50;;;;;;;-144.47;32.35;53193.75;4992815;28;20569;-65
2022/06/02 13:14:57;;;;;;;4.40;1.73;;;;;;;-144.47;31.21;53199.72;4988077;28;20030;-64
2022/06/02 13:17:38;;;;;;;5.20;1.60;;;;;;;-144.47;30.46;53211.63;4990981;28;20035;-65
2022/06/02 13:20:32;;;;;;;3.20;1.58;;;;;;;-144.47;29.00;53193.75;4991103;28;20049;-68
2022/06/02 13:23:35;;;;;;;3.03;1.77;;;;;;;-144.47;28.10;53150.06;4990853;28;20082;-66
2022/06/02 13:26:45;;;;;;;4.55;1.30;;;;;;;-144.47;27.55;53114.31;4990895;28;20022;-65
2022/06/02 13:29:49;;;;;;;2.72;1.30;;;;;;;-144.47;27.92;53158.00;4990945;28;20038;-66
2022/06/02 13:32:26;;;;;;;2.38;1.40;;;;;;;-144.47;28.35;53165.94;4988650;28;20061;-67
2022/06/02 13:35:30;;;;;;;5.15;2.15;;;;;;;-144.47;28.13;53165.94;4991718;28;20486;-66
2022/06/02 13:38:36;;;;;;;4.35;1.80;;;;;;;-144.47;28.02;53160.00;4991966;28;20108;-65
2022/06/02 13:41:04;;;;;;;3.50;1.42;;;;;;;-144.47;27.56;53146.09;4992665;28;20083;-65
2022/06/02 13:43:49;;;;;;;;;;;;;;;-144.47;28.23;53161.97;4991654;28;20343;-68
2022/06/02 13:46:39;;;;;;;6.82;1.70;;;;;;;-144.47;27.76;53156.00;4991299;28;19921;-65